HNL weather

Honolulu International Airport
Honolulu, Hawaii, United States

Public forecast

Using degrees Fahrenheit for public forecast. Weather courtesy of forecast.io.

METAR (pilot weather report)

Retrieved 2017/05/24 23:53 UTC (1 hour ago):

PHNL 242353Z 06009KT 10SM FEW025 SCT045 29/17 A3003

TAF (pilot weather forecast)

Forecast is more than 12 hours old.

Retrieved 2017/05/24 00:46 UTC (1 day ago):

TAF PHNL 242343Z 2500/2606 06014G22KT P6SM FEW025 SCT045 FM250600 06011KT P6SM FEW025 SCT045 FM251900 06012G20KT P6SM FEW025 SCT045